Time;durP1;ratioP1;P1;durP2;ratioP2;P2;SDS_P1;SDS_P2;PMS_P1;PMS_P2;Temp;Humidity;BMP_temperature;BMP_pressure;BME280_temperature;BME280_humidity;BME280_pressure;Samples;Min_cycle;Max_cycle;Signal;HPM_P1;HPM_P2
2022/12/12 00:01:21;;;;;;;3.30;2.60;;;;;;;10.57;70.52;93309.41;5088974;28;20190;-48
2022/12/12 00:03:49;;;;;;;2.60;2.40;;;;;;;10.71;70.35;93339.34;5089219;28;20181;-48
2022/12/12 00:06:15;;;;;;;2.80;2.60;;;;;;;10.72;70.58;93351.94;5088536;28;20221;-48
2022/12/12 00:08:42;;;;;;;2.90;2.60;;;;;;;10.64;70.37;93346.09;5090313;28;20209;-48
2022/12/12 00:11:10;;;;;;;2.67;2.47;;;;;;;10.72;70.51;93353.72;5090011;28;20633;-50
2022/12/12 00:13:38;;;;;;;3.50;2.90;;;;;;;10.73;70.51;93355.31;5088917;28;20246;-48
2022/12/12 00:16:06;;;;;;;2.63;2.43;;;;;;;10.72;70.63;93362.19;5091649;28;20221;-47
2022/12/12 00:18:35;;;;;;;2.60;2.40;;;;;;;10.73;70.61;93366.31;5092469;28;20272;-48
2022/12/12 00:21:03;;;;;;;2.70;2.50;;;;;;;10.65;70.51;93340.81;5092573;28;20197;-48
2022/12/12 00:23:30;;;;;;;2.50;2.30;;;;;;;10.62;70.42;93341.16;5092804;28;20197;-49
2022/12/12 00:25:59;;;;;;;2.70;2.50;;;;;;;10.71;70.65;93360.59;5093049;28;20528;-48
2022/12/12 00:28:26;;;;;;;2.80;2.60;;;;;;;10.67;70.60;93353.44;5092168;28;20213;-48
2022/12/12 00:30:55;;;;;;;2.57;2.37;;;;;;;10.70;70.41;93369.22;5092756;28;20621;-47
2022/12/12 00:33:22;;;;;;;2.80;2.60;;;;;;;10.69;70.53;93367.63;5092067;28;20661;-46
2022/12/12 00:35:50;;;;;;;2.77;2.57;;;;;;;10.69;70.54;93362.50;5092191;28;20205;-47
2022/12/12 00:38:17;;;;;;;2.60;2.37;;;;;;;10.68;70.56;93367.81;5092038;28;20181;-49
2022/12/12 00:40:44;;;;;;;2.80;2.60;;;;;;;10.65;70.53;93368.94;5092489;28;20710;-50
2022/12/12 00:43:11;;;;;;;2.90;2.60;;;;;;;10.62;70.66;93371.03;5091963;28;20194;-48
2022/12/12 00:45:38;;;;;;;2.70;2.50;;;;;;;10.58;70.83;93378.25;5092485;28;20209;-48
2022/12/12 00:48:07;;;;;;;2.77;2.57;;;;;;;10.54;70.68;93374.44;5092070;28;20181;-48
2022/12/12 00:50:35;;;;;;;3.33;2.80;;;;;;;10.51;70.53;93380.69;5092134;28;20235;-48
2022/12/12 00:53:02;;;;;;;3.07;2.83;;;;;;;10.48;70.78;93381.03;5092180;28;20196;-51
2022/12/12 00:55:28;;;;;;;2.60;2.40;;;;;;;10.40;70.77;93370.84;5091630;28;20673;-50
2022/12/12 00:57:55;;;;;;;3.10;2.80;;;;;;;10.45;70.61;93380.59;5092362;28;20551;-47
2022/12/12 01:00:23;;;;;;;2.37;2.17;;;;;;;10.43;70.54;93396.06;5092138;28;20267;-47
2022/12/12 01:02:49;;;;;;;3.33;2.97;;;;;;;10.43;70.63;93396.06;5080929;28;20252;-48
2022/12/12 01:05:18;;;;;;;2.70;2.50;;;;;;;10.42;70.78;93401.38;5091175;28;20574;-48
2022/12/12 01:07:45;;;;;;;2.60;2.40;;;;;;;10.42;70.74;93388.59;5091755;28;20204;-49
2022/12/12 01:10:12;;;;;;;2.60;2.40;;;;;;;10.43;70.82;93395.28;5091570;28;21039;-46
2022/12/12 01:12:39;;;;;;;3.00;2.80;;;;;;;10.43;70.62;93395.28;5091659;28;20197;-46
2022/12/12 01:15:07;;;;;;;2.83;2.63;;;;;;;10.43;70.90;93396.06;5091006;28;20226;-51
2022/12/12 01:17:36;;;;;;;2.57;2.33;;;;;;;10.44;71.03;93394.31;5091603;28;20194;-48
2022/12/12 01:20:05;;;;;;;2.90;2.57;;;;;;;10.44;70.63;93392.53;5091612;28;20200;-48
2022/12/12 01:22:33;;;;;;;2.90;2.70;;;;;;;9.95;70.44;93311.06;5091543;28;20653;-48
2022/12/12 01:25:00;;;;;;;3.00;2.70;;;;;;;10.41;70.59;93387.78;5091545;28;20182;-48
2022/12/12 01:27:27;;;;;;;2.60;2.40;;;;;;;10.38;70.68;93392.44;5091054;28;20267;-49
2022/12/12 01:29:55;;;;;;;3.17;2.87;;;;;;;10.38;70.57;93393.22;5091744;28;20190;-47
2022/12/12 01:32:21;;;;;;;2.90;2.70;;;;;;;9.88;70.48;93320.34;5091053;28;20276;-49
2022/12/12 01:34:48;;;;;;;2.90;2.70;;;;;;;10.39;70.58;93397.38;5091120;28;20258;-48
2022/12/12 01:37:15;;;;;;;2.93;2.73;;;;;;;10.38;70.59;93392.44;5091076;28;20279;-49
2022/12/12 01:39:43;;;;;;;2.73;2.53;;;;;;;10.38;70.58;93402.66;5091306;28;20251;-48
2022/12/12 01:42:13;;;;;;;2.80;2.60;;;;;;;10.37;70.54;93418.97;5090995;28;20639;-48
2022/12/12 01:44:43;;;;;;;2.87;2.63;;;;;;;10.35;70.47;93415.75;5090882;28;20194;-47
2022/12/12 01:47:12;;;;;;;2.80;2.60;;;;;;;10.32;70.71;93409.25;5090302;28;20209;-46
2022/12/12 01:49:41;;;;;;;2.93;2.70;;;;;;;10.35;70.52;93415.75;5090773;28;20186;-47
2022/12/12 01:52:10;;;;;;;3.10;2.90;;;;;;;10.28;70.66;93407.97;5090469;28;20190;-51
2022/12/12 01:54:41;;;;;;;3.30;2.47;;;;;;;10.29;70.54;93409.56;5090809;28;20220;-54
2022/12/12 01:57:12;;;;;;;2.83;2.60;;;;;;;10.29;70.64;93412.13;5090682;28;20236;-49
2022/12/12 01:59:39;;;;;;;2.87;2.67;;;;;;;9.68;70.59;93321.72;5091711;28;20561;-48
2022/12/12 02:02:08;;;;;;;3.13;2.83;;;;;;;10.24;70.55;93415.19;5090563;28;20189;-48
2022/12/12 02:04:35;;;;;;;3.10;2.80;;;;;;;10.19;70.65;93424.25;5090750;28;20217;-48
2022/12/12 02:07:03;;;;;;;3.53;3.23;;;;;;;10.17;70.89;93427.00;5090293;28;20307;-48
2022/12/12 02:09:32;;;;;;;3.60;3.30;;;;;;;10.17;70.83;93433.84;5090592;28;20197;-47
2022/12/12 02:11:58;;;;;;;3.27;2.97;;;;;;;10.15;70.82;93440.91;5090145;28;20195;-47
2022/12/12 02:14:30;;;;;;;3.53;3.27;;;;;;;10.14;71.01;93439.28;5090791;28;20185;-48
2022/12/12 02:17:26;;;;;;;4.17;3.63;;;;;;;10.10;70.76;93432.91;5090403;28;20609;-52
2022/12/12 02:20:29;;;;;;;3.67;3.37;;;;;;;10.10;71.27;93432.91;5090528;28;20718;-46
2022/12/12 02:23:30;;;;;;;3.70;3.40;;;;;;;10.09;71.02;93426.22;5090618;28;20295;-49
2022/12/12 02:26:41;;;;;;;3.90;3.60;;;;;;;10.07;71.30;93434.06;5090200;28;20217;-48
2022/12/12 02:29:43;;;;;;;4.37;3.60;;;;;;;10.04;71.17;93434.38;5090345;28;20262;-48
2022/12/12 02:32:23;;;;;;;4.03;3.70;;;;;;;9.96;71.34;93432.66;5089491;28;20189;-46
2022/12/12 02:35:01;;;;;;;5.07;4.10;;;;;;;9.96;71.20;93427.53;5090279;28;20182;-48
2022/12/12 02:37:37;;;;;;;4.50;4.10;;;;;;;9.94;71.36;93436.34;5089018;28;20190;-49
2022/12/12 02:40:15;;;;;;;4.27;3.87;;;;;;;9.87;71.31;93428.53;5090342;28;20239;-49
2022/12/12 02:42:46;;;;;;;4.60;4.20;;;;;;;9.66;71.40;93406.09;5089945;28;20243;-47
2022/12/12 02:45:20;;;;;;;4.47;4.07;;;;;;;9.85;71.47;93434.78;5090242;28;20216;-46
2022/12/12 02:47:54;;;;;;;4.70;4.30;;;;;;;9.78;71.40;93424.41;5089522;28;20729;-46
2022/12/12 02:50:24;;;;;;;4.50;4.10;;;;;;;9.57;71.34;93391.78;5089698;28;20193;-46
2022/12/12 02:52:51;;;;;;;4.73;4.23;;;;;;;9.76;71.42;93426.34;5089605;28;20193;-48
2022/12/12 02:55:19;;;;;;;5.00;4.40;;;;;;;9.74;71.41;93425.69;5089580;28;20201;-49
2022/12/12 02:57:47;;;;;;;4.30;3.90;;;;;;;9.66;71.46;93420.63;5090252;28;20640;-48
2022/12/12 03:00:17;;;;;;;4.80;4.20;;;;;;;9.66;71.47;93423.16;5090296;28;20185;-47
2022/12/12 03:09:06;;;;;;;4.67;4.27;;;;;;;9.50;71.59;93424.81;5089431;28;20690;-49
2022/12/12 03:11:43;;;;;;;5.03;4.50;;;;;;;9.49;71.67;93425.75;5089714;28;20212;-49
2022/12/12 03:14:17;;;;;;;4.73;4.23;;;;;;;9.42;71.75;93417.16;5089213;28;20189;-48
2022/12/12 03:16:49;;;;;;;4.77;4.23;;;;;;;9.33;71.65;93399.50;5089054;28;20221;-49
2022/12/12 03:19:24;;;;;;;5.20;4.70;;;;;;;9.40;71.52;93426.72;5089549;28;20194;-48
2022/12/12 03:21:55;;;;;;;5.03;4.53;;;;;;;9.46;71.48;93436.31;5089526;28;20185;-48
2022/12/12 03:24:28;;;;;;;5.00;4.37;;;;;;;9.46;71.67;93427.84;5089252;28;20182;-48
2022/12/12 03:26:59;;;;;;;5.20;4.60;;;;;;;9.45;71.72;93428.78;5089314;28;20205;-47
2022/12/12 03:29:31;;;;;;;5.30;4.80;;;;;;;9.30;71.67;93406.50;5089594;28;20198;-48
2022/12/12 03:32:03;;;;;;;5.90;5.30;;;;;;;9.42;71.68;93440.13;5089099;28;20919;-47
2022/12/12 03:34:38;;;;;;;7.13;5.07;;;;;;;9.42;71.69;93444.44;5089291;28;20189;-51
2022/12/12 03:37:11;;;;;;;5.30;4.77;;;;;;;9.41;71.55;93437.72;5089255;28;20632;-51
2022/12/12 03:39:42;;;;;;;6.10;5.50;;;;;;;9.42;71.50;93445.22;5089203;28;20213;-47
2022/12/12 03:42:16;;;;;;;7.40;5.80;;;;;;;9.43;71.92;93451.13;5089423;28;20622;-50
2022/12/12 03:44:48;;;;;;;7.93;5.70;;;;;;;9.41;71.75;93447.94;5089545;28;20208;-50
2022/12/12 03:47:20;;;;;;;5.77;5.27;;;;;;;9.40;71.68;93454.00;5089070;28;20267;-48
2022/12/12 03:49:54;;;;;;;6.73;5.80;;;;;;;9.39;71.63;93460.84;5091568;28;20298;-47
2022/12/12 03:52:26;;;;;;;6.30;5.70;;;;;;;9.38;71.55;93458.47;5092930;28;20622;-48
2022/12/12 03:55:01;;;;;;;7.07;5.70;;;;;;;9.36;71.67;93466.28;5093321;28;20620;-46
2022/12/12 03:57:35;;;;;;;6.17;5.57;;;;;;;9.36;71.55;93466.28;5093199;28;20193;-49
2022/12/12 04:00:05;;;;;;;7.10;6.30;;;;;;;9.36;71.73;93463.72;5093242;28;20178;-49
2022/12/12 04:02:38;;;;;;;7.23;6.47;;;;;;;9.36;71.64;93476.47;5093064;28;20224;-47
2022/12/12 04:05:15;;;;;;;7.53;6.83;;;;;;;9.37;71.82;93470.44;5093271;28;20590;-48
2022/12/12 04:07:45;;;;;;;7.70;6.90;;;;;;;9.37;71.71;93467.88;5093066;28;20209;-48
2022/12/12 04:13:08;;;;;;;7.30;6.57;;;;;;;9.35;71.68;93469.78;5092759;28;20654;-47
2022/12/12 04:16:02;;;;;;;7.60;6.87;;;;;;;9.33;71.89;93474.25;5092831;28;20225;-48
2022/12/12 04:18:39;;;;;;;7.33;6.57;;;;;;;9.29;71.79;93466.13;5030465;28;20569;-47
2022/12/12 04:24:16;;;;;;;9.50;7.87;;;;;;;9.28;71.94;93490.06;5030104;28;20206;-48
2022/12/12 04:26:47;;;;;;;7.20;6.50;;;;;;;9.28;71.87;93496.88;5029828;28;20265;-47
2022/12/12 04:29:29;;;;;;;7.73;7.00;;;;;;;9.26;71.65;93499.59;5029795;28;20199;-48
2022/12/12 04:32:03;;;;;;;8.00;6.70;;;;;;;9.20;72.14;93492.59;5030018;28;20578;-50
2022/12/12 04:34:39;;;;;;;8.17;7.37;;;;;;;9.23;71.77;93502.47;5029762;28;20231;-49
2022/12/12 04:37:11;;;;;;;9.20;7.50;;;;;;;9.22;71.83;93498.31;5029987;28;20269;-47
2022/12/12 04:39:39;;;;;;;9.23;7.80;;;;;;;9.20;71.98;93496.91;5028572;28;20222;-50
2022/12/12 04:42:08;;;;;;;8.23;7.33;;;;;;;9.22;71.87;93492.44;5029940;28;20195;-47
2022/12/12 04:44:38;;;;;;;8.47;7.57;;;;;;;9.20;71.84;93487.50;5029480;28;20250;-47
2022/12/12 04:47:07;;;;;;;7.63;6.80;;;;;;;9.18;72.05;93484.28;5029845;28;20776;-49
2022/12/12 04:49:37;;;;;;;8.57;7.67;;;;;;;9.18;71.77;93476.63;5029020;28;20191;-48
2022/12/12 04:52:09;;;;;;;7.63;6.83;;;;;;;9.08;71.91;93465.81;5029285;28;20595;-47
2022/12/12 04:54:44;;;;;;;8.53;7.63;;;;;;;9.17;71.93;93484.47;5049970;28;20196;-48
2022/12/12 04:57:15;;;;;;;10.27;7.83;;;;;;;9.16;71.85;93490.53;5092386;28;20204;-47
2022/12/12 04:59:42;;;;;;;8.00;7.17;;;;;;;9.16;72.17;93480.31;5092381;28;20188;-49
2022/12/12 05:02:36;;;;;;;8.70;7.57;;;;;;;9.01;72.01;93464.84;5091773;28;20217;-49
2022/12/12 05:05:08;;;;;;;9.63;8.10;;;;;;;9.14;72.05;93489.88;5092409;28;20226;-47
2022/12/12 05:07:38;;;;;;;9.53;7.73;;;;;;;9.13;72.18;93496.72;5091386;28;20221;-48
2022/12/12 05:10:07;;;;;;;10.33;7.57;;;;;;;9.03;71.99;93485.88;5091565;28;20189;-48
2022/12/12 05:12:40;;;;;;;9.87;7.77;;;;;;;8.63;72.01;93412.69;5091698;28;20200;-47
2022/12/12 05:15:08;;;;;;;10.83;8.73;;;;;;;9.14;72.27;93493.22;5091597;28;20331;-47
2022/12/12 05:17:42;;;;;;;9.13;8.17;;;;;;;9.15;72.27;93496.56;5091702;28;20190;-48
2022/12/12 05:20:09;;;;;;;9.67;8.30;;;;;;;9.14;72.05;93488.13;5093399;28;20185;-47
2022/12/12 05:22:37;;;;;;;11.80;8.90;;;;;;;9.16;72.21;93496.41;5091023;28;20657;-47
2022/12/12 05:25:05;;;;;;;11.63;8.47;;;;;;;9.15;71.76;93496.56;5091689;28;20189;-46
2022/12/12 05:27:32;;;;;;;11.30;8.90;;;;;;;9.18;71.86;93509.78;5091088;28;20209;-49
2022/12/12 05:29:58;;;;;;;9.83;8.70;;;;;;;9.01;72.16;93478.38;5091298;28;20186;-48
2022/12/12 05:32:25;;;;;;;9.93;8.27;;;;;;;9.18;72.14;93514.09;5090956;28;20572;-47
2022/12/12 05:34:52;;;;;;;12.23;9.73;;;;;;;9.19;71.86;93505.50;5090987;28;20669;-47
2022/12/12 05:37:19;;;;;;;11.13;9.27;;;;;;;9.19;71.95;93506.28;5091031;28;20257;-48
2022/12/12 05:39:47;;;;;;;12.67;10.00;;;;;;;9.16;71.91;93488.78;5091501;28;20571;-46
2022/12/12 05:42:14;;;;;;;12.50;9.30;;;;;;;9.22;71.99;93505.19;5090921;28;20178;-48
2022/12/12 05:44:41;;;;;;;12.27;9.80;;;;;;;9.22;71.98;93493.22;5091072;28;20189;-47
2022/12/12 05:47:08;;;;;;;13.77;9.60;;;;;;;9.07;72.13;93488.91;5090643;28;20603;-48
2022/12/12 05:49:35;;;;;;;13.90;9.57;;;;;;;9.24;71.92;93519.38;5090839;28;20182;-49
2022/12/12 05:52:02;;;;;;;11.50;8.73;;;;;;;9.26;71.75;93516.66;5090274;28;20186;-47
2022/12/12 05:54:29;;;;;;;11.23;9.17;;;;;;;9.28;72.02;93512.19;5090978;28;20564;-48
2022/12/12 05:56:57;;;;;;;13.83;10.10;;;;;;;9.29;71.90;93517.16;5091010;28;20174;-52
2022/12/12 05:59:24;;;;;;;11.80;9.77;;;;;;;9.32;71.79;93525.44;5090798;28;20571;-49
2022/12/12 06:01:51;;;;;;;12.73;10.07;;;;;;;9.35;71.77;93517.47;5090605;28;20580;-47
2022/12/12 06:04:17;;;;;;;11.70;9.57;;;;;;;9.36;71.99;93509.63;5090612;28;20181;-47
2022/12/12 06:06:44;;;;;;;12.00;9.73;;;;;;;9.23;71.75;93492.25;5089896;28;20221;-47
2022/12/12 06:09:11;;;;;;;11.10;8.77;;;;;;;9.43;73.32;93518.25;5090451;28;20178;-49
2022/12/12 06:11:38;;;;;;;14.27;9.20;;;;;;;9.60;76.26;93511.41;5090361;28;20520;-48
2022/12/12 06:14:06;;;;;;;14.67;8.43;;;;;;;9.76;76.03;93521.59;5090787;28;20198;-48
2022/12/12 06:16:34;;;;;;;12.83;9.60;;;;;;;9.70;76.79;93512.03;5090380;28;20599;-48
2022/12/12 06:19:01;;;;;;;10.10;6.23;;;;;;;10.02;96.43;93526.50;5090300;28;20198;-47
2022/12/12 06:21:28;;;;;;;9.20;5.97;;;;;;;10.41;100.00;93477.22;5089584;28;20190;-47
2022/12/12 06:23:55;;;;;;;13.93;8.03;;;;;;;11.66;100.00;93556.41;5089470;28;20602;-48
2022/12/12 06:26:22;;;;;;;13.77;10.90;;;;;;;12.16;100.00;93552.47;5083529;28;20178;-48
2022/12/12 06:28:49;;;;;;;15.77;7.67;;;;;;;12.40;100.00;93554.78;5089811;28;20213;-47
2022/12/12 06:31:17;;;;;;;10.47;8.23;;;;;;;12.45;100.00;93559.38;5090534;28;20186;-49
2022/12/12 06:33:44;;;;;;;10.43;7.77;;;;;;;12.42;100.00;93557.97;5087649;28;20691;-48
2022/12/12 06:36:22;;;;;;;16.67;7.93;;;;;;;12.36;100.00;93565.59;5086453;28;20638;-46
2022/12/12 06:38:49;;;;;;;8.60;7.60;;;;;;;12.27;99.22;93573.34;5088792;28;20216;-48
2022/12/12 06:41:16;;;;;;;18.07;8.50;;;;;;;12.19;95.63;93577.75;5088891;28;20197;-48
2022/12/12 06:43:43;;;;;;;10.63;9.30;;;;;;;12.08;92.01;93573.84;5088026;28;20205;-48
2022/12/12 06:46:13;;;;;;;10.73;9.50;;;;;;;11.99;89.18;93573.13;5088681;28;20190;-49
2022/12/12 06:48:42;;;;;;;15.17;11.33;;;;;;;11.88;87.21;93568.44;5088538;28;20223;-48
2022/12/12 06:51:11;;;;;;;16.27;11.43;;;;;;;11.81;85.58;93573.41;5089080;28;20194;-47
2022/12/12 06:53:38;;;;;;;22.23;13.80;;;;;;;11.72;84.21;93564.19;5089250;28;20220;-48
2022/12/12 06:56:07;;;;;;;22.70;14.50;;;;;;;11.66;83.49;93564.09;5089176;28;20196;-47
2022/12/12 06:58:34;;;;;;;17.87;14.53;;;;;;;11.58;82.95;93585.44;5088954;28;20174;-47
2022/12/12 07:01:01;;;;;;;20.70;15.77;;;;;;;11.53;82.47;93587.72;5087973;28;20574;-47
2022/12/12 07:03:27;;;;;;;23.13;15.03;;;;;;;11.41;81.85;93583.94;5089139;28;20205;-46
2022/12/12 07:05:56;;;;;;;18.73;15.23;;;;;;;11.42;81.55;93588.88;5088774;28;20198;-47
2022/12/12 07:08:22;;;;;;;21.80;15.50;;;;;;;11.39;81.19;93598.66;5088015;28;20242;-47
2022/12/12 07:10:49;;;;;;;21.83;14.67;;;;;;;11.38;81.20;93597.88;5089265;28;20259;-46
2022/12/12 07:13:16;;;;;;;17.17;14.87;;;;;;;11.29;80.81;93576.66;5088767;28;20665;-46
2022/12/12 07:15:43;;;;;;;17.67;13.77;;;;;;;11.35;80.99;93595.66;5088388;28;20225;-47
2022/12/12 07:18:10;;;;;;;15.80;14.03;;;;;;;11.33;80.84;93595.03;5088616;28;20201;-48
2022/12/12 07:20:39;;;;;;;17.83;14.77;;;;;;;11.37;80.67;93601.41;5088346;28;20204;-49
2022/12/12 07:23:08;;;;;;;18.17;13.53;;;;;;;11.26;80.20;93597.44;5088144;28;20194;-46
2022/12/12 07:25:37;;;;;;;17.93;14.67;;;;;;;11.34;79.95;93623.97;5088913;28;20205;-48
2022/12/12 07:28:04;;;;;;;17.13;14.00;;;;;;;11.34;80.01;93626.53;5086613;28;20646;-47
2022/12/12 07:30:31;;;;;;;17.27;13.10;;;;;;;11.35;79.87;93620.44;5088443;28;20189;-47
2022/12/12 07:32:58;;;;;;;17.90;14.17;;;;;;;11.36;79.59;93627.19;5088514;28;20224;-47
2022/12/12 07:35:25;;;;;;;19.40;14.17;;;;;;;11.34;79.33;93637.56;5088678;28;20588;-48
2022/12/12 07:37:52;;;;;;;16.83;13.67;;;;;;;11.37;79.20;93644.13;5088111;28;20201;-46
2022/12/12 07:40:20;;;;;;;15.40;13.13;;;;;;;11.36;79.08;93652.78;5088290;28;20198;-48
2022/12/12 07:42:47;;;;;;;21.20;14.90;;;;;;;11.40;78.90;93662.50;5088458;28;20197;-50
2022/12/12 07:45:14;;;;;;;19.30;14.17;;;;;;;11.44;78.73;93660.38;5087908;28;20190;-47
2022/12/12 07:47:40;;;;;;;16.00;13.77;;;;;;;11.45;78.53;93657.69;5088398;28;20213;-47
2022/12/12 07:50:08;;;;;;;17.47;14.27;;;;;;;11.52;78.49;93653.47;5087911;28;20193;-51
2022/12/12 07:52:35;;;;;;;20.47;13.83;;;;;;;11.51;78.09;93645.97;5085259;28;20194;-51
2022/12/12 07:55:02;;;;;;;18.80;15.00;;;;;;;11.64;77.81;93653.09;5088292;28;20205;-51
2022/12/12 07:57:30;;;;;;;18.47;13.87;;;;;;;11.70;77.79;93655.78;5084921;28;20229;-48
2022/12/12 07:59:57;;;;;;;17.50;13.83;;;;;;;11.72;77.66;93668.41;5085821;28;20182;-47
2022/12/12 08:02:24;;;;;;;16.20;13.00;;;;;;;11.67;77.50;93655.31;5087748;28;20965;-50
2022/12/12 08:04:51;;;;;;;16.00;14.27;;;;;;;11.84;77.62;93671.41;5084975;28;20209;-52
2022/12/12 08:07:18;;;;;;;15.97;13.43;;;;;;;11.84;77.45;93672.19;5088649;28;20669;-48
2022/12/12 08:09:45;;;;;;;15.90;13.67;;;;;;;11.94;77.38;93677.09;5088074;28;20182;-50
2022/12/12 08:12:12;;;;;;;19.73;13.33;;;;;;;11.99;77.31;93683.28;5087785;28;20194;-51
2022/12/12 08:14:40;;;;;;;15.20;13.23;;;;;;;11.84;77.11;93649.16;5087378;28;20637;-49
2022/12/12 08:17:07;;;;;;;16.90;13.60;;;;;;;12.08;77.06;93684.03;5089904;28;20197;-57
2022/12/12 08:19:33;;;;;;;14.97;13.37;;;;;;;12.11;76.95;93688.03;5085984;28;20702;-47
2022/12/12 08:22:00;;;;;;;15.40;13.17;;;;;;;12.13;76.92;93694.56;5086999;28;20264;-48
2022/12/12 08:24:28;;;;;;;14.03;12.53;;;;;;;12.17;76.74;93698.38;5087816;28;20186;-47
2022/12/12 08:26:55;;;;;;;14.50;12.93;;;;;;;12.21;76.80;93699.63;5088073;28;20189;-48
2022/12/12 08:29:22;;;;;;;17.63;14.00;;;;;;;12.26;76.47;93699.94;5084770;28;20228;-46
2022/12/12 08:31:50;;;;;;;14.67;12.83;;;;;;;12.32;76.49;93695.88;5087634;28;20644;-47
2022/12/12 08:34:17;;;;;;;13.77;12.30;;;;;;;12.37;76.21;93701.28;5087929;28;20201;-48
2022/12/12 08:36:45;;;;;;;13.67;12.00;;;;;;;12.43;75.96;93697.22;5087762;28;20213;-47
2022/12/12 08:39:14;;;;;;;14.97;12.80;;;;;;;12.48;75.53;93700.88;5092106;28;20202;-48
2022/12/12 08:41:43;;;;;;;14.10;12.60;;;;;;;12.38;75.34;93684.91;5091506;28;20197;-46
2022/12/12 08:44:12;;;;;;;16.33;12.97;;;;;;;12.44;75.35;93678.31;5091335;28;20197;-46
2022/12/12 08:46:40;;;;;;;13.10;11.80;;;;;;;12.62;75.19;93707.00;5091418;28;20201;-47
2022/12/12 08:49:08;;;;;;;15.83;12.40;;;;;;;12.66;74.89;93697.97;5091499;28;20430;-48
2022/12/12 08:51:37;;;;;;;14.60;12.03;;;;;;;12.71;74.57;93697.44;5091207;28;20197;-47
2022/12/12 08:54:05;;;;;;;13.77;12.20;;;;;;;12.71;74.63;93700.00;5090958;28;20722;-48
2022/12/12 08:56:32;;;;;;;13.30;11.90;;;;;;;12.76;74.42;93697.72;5091387;28;20186;-47
2022/12/12 08:58:59;;;;;;;13.60;12.03;;;;;;;12.75;74.32;93688.44;5091339;28;20197;-47
2022/12/12 09:01:27;;;;;;;13.63;12.17;;;;;;;12.81;74.12;93690.28;5091103;28;20200;-47
2022/12/12 09:03:55;;;;;;;16.17;12.53;;;;;;;12.84;73.84;93687.38;5090793;28;20197;-50
2022/12/12 09:06:24;;;;;;;15.20;12.47;;;;;;;12.89;73.76;93687.63;5090976;28;20193;-47
2022/12/12 09:08:52;;;;;;;13.57;12.17;;;;;;;12.93;73.44;93688.88;5090962;28;20225;-51
2022/12/12 09:11:19;;;;;;;13.97;12.43;;;;;;;12.95;73.41;93678.44;5091074;28;20206;-46
2022/12/12 09:13:46;;;;;;;14.53;12.50;;;;;;;12.96;73.23;93685.19;5090799;28;20193;-47
2022/12/12 09:16:13;;;;;;;16.07;13.03;;;;;;;12.98;72.98;93676.31;5090733;28;20708;-46
2022/12/12 09:18:41;;;;;;;14.77;12.80;;;;;;;13.00;72.80;93678.72;5091502;28;20195;-47
2022/12/12 09:21:10;;;;;;;16.17;12.83;;;;;;;12.96;72.74;93680.03;5090319;28;20198;-48
2022/12/12 09:23:38;;;;;;;16.17;13.70;;;;;;;13.03;72.57;93688.63;5090747;28;20205;-47
2022/12/12 09:26:06;;;;;;;14.53;12.93;;;;;;;13.03;72.52;93688.63;5090535;28;20206;-48
2022/12/12 09:28:33;;;;;;;14.03;12.53;;;;;;;13.02;72.37;93674.19;5091011;28;20232;-47
2022/12/12 09:31:00;;;;;;;14.60;13.10;;;;;;;13.04;72.19;93669.69;5091179;28;20213;-47
2022/12/12 09:33:27;;;;;;;13.97;12.57;;;;;;;13.04;72.06;93674.81;5090913;28;20182;-48
2022/12/12 09:35:58;;;;;;;16.33;14.03;;;;;;;13.03;71.74;93670.66;5090234;28;20216;-48
2022/12/12 09:38:26;;;;;;;15.80;13.50;;;;;;;13.03;71.81;93663.75;5089563;28;20254;-47
2022/12/12 09:40:58;;;;;;;14.90;13.30;;;;;;;12.80;71.72;93625.34;5089974;28;20295;-47
2022/12/12 09:43:27;;;;;;;15.67;13.07;;;;;;;13.04;71.57;93662.78;5088900;28;20201;-51
2022/12/12 09:45:54;;;;;;;15.70;13.17;;;;;;;13.06;71.56;93665.97;5090334;28;20648;-47
2022/12/12 09:48:27;;;;;;;16.30;13.43;;;;;;;12.96;71.35;93641.56;5089852;28;20230;-47
2022/12/12 09:50:54;;;;;;;15.33;12.53;;;;;;;13.13;70.97;93658.34;5089712;28;20247;-47
2022/12/12 09:53:25;;;;;;;18.60;14.00;;;;;;;13.15;70.89;93655.59;5089107;28;20547;-47
2022/12/12 09:56:00;;;;;;;18.13;13.00;;;;;;;13.16;70.72;93647.72;5089541;28;20266;-47
2022/12/12 09:58:34;;;;;;;17.07;13.50;;;;;;;13.28;70.64;93655.78;5088025;28;20193;-48
2022/12/12 10:01:06;;;;;;;15.17;12.57;;;;;;;13.18;70.61;93632.16;5089968;28;20205;-46
2022/12/12 10:03:48;;;;;;;16.50;13.00;;;;;;;13.40;70.21;93656.13;5089645;28;20274;-47
2022/12/12 10:06:17;;;;;;;18.03;13.07;;;;;;;13.40;70.01;93646.66;5088627;28;20560;-47
2022/12/12 10:08:54;;;;;;;16.93;13.30;;;;;;;13.49;69.82;93647.34;5091917;28;20308;-46
2022/12/12 10:14:14;;;;;;;13.97;12.33;;;;;;;13.54;69.47;93647.59;5089555;28;21035;-47
2022/12/12 10:16:42;;;;;;;15.70;12.93;;;;;;;13.52;69.64;93634.16;5091627;28;20229;-48
2022/12/12 10:19:17;;;;;;;14.13;12.63;;;;;;;13.60;69.39;93646.06;5089881;28;20178;-48
2022/12/12 10:21:47;;;;;;;19.00;12.77;;;;;;;13.65;69.29;93636.06;5092382;28;20197;-47
2022/12/12 10:24:26;;;;;;;14.43;11.97;;;;;;;13.70;69.00;93641.44;5089340;28;20197;-47
2022/12/12 10:26:54;;;;;;;14.77;12.20;;;;;;;13.76;68.85;93628.63;5087197;28;20193;-49
2022/12/12 10:29:24;;;;;;;16.60;12.70;;;;;;;13.84;68.71;93616.66;5088837;28;20221;-47
2022/12/12 10:32:00;;;;;;;16.23;13.43;;;;;;;13.90;68.50;93603.84;5089354;28;20197;-50
2022/12/12 10:34:42;;;;;;;15.83;12.70;;;;;;;14.03;68.13;93610.88;5088868;28;20188;-48
2022/12/12 10:37:35;;;;;;;14.73;12.30;;;;;;;14.18;67.67;93608.25;5088593;28;20205;-47
2022/12/12 10:40:16;;;;;;;17.07;13.20;;;;;;;14.19;67.12;93574.63;5088332;28;20294;-48
2022/12/12 10:42:52;;;;;;;16.40;13.30;;;;;;;14.32;67.27;93579.84;5089106;28;20185;-47
2022/12/12 10:45:43;;;;;;;14.20;12.17;;;;;;;14.42;66.97;93583.88;5089287;28;20656;-49
2022/12/12 10:48:10;;;;;;;14.93;13.03;;;;;;;14.49;66.86;93582.19;5087961;28;20205;-47
2022/12/12 10:50:41;;;;;;;14.13;12.63;;;;;;;14.57;66.67;93597.47;5088650;28;20201;-48
2022/12/12 10:53:10;;;;;;;16.73;12.33;;;;;;;14.65;66.37;93599.91;5088740;28;20201;-47
2022/12/12 10:55:44;;;;;;;14.80;12.33;;;;;;;14.53;66.28;93576.47;5088877;28;20248;-47
2022/12/12 10:58:15;;;;;;;14.87;12.33;;;;;;;14.69;66.36;93602.88;5088003;28;20217;-47
2022/12/12 11:00:44;;;;;;;13.57;11.40;;;;;;;14.69;66.31;93603.69;5088451;28;20659;-48
2022/12/12 11:03:34;;;;;;;13.80;12.27;;;;;;;14.68;66.25;93601.28;5088620;28;20286;-47
2022/12/12 11:06:05;;;;;;;13.63;11.13;;;;;;;14.67;66.07;93604.84;5025749;28;20218;-47
2022/12/12 11:08:33;;;;;;;14.93;11.67;;;;;;;14.62;66.26;93592.53;5025685;28;20227;-46
2022/12/12 11:11:06;;;;;;;15.50;12.37;;;;;;;14.66;66.15;93592.97;5025843;28;20202;-48
2022/12/12 11:13:43;;;;;;;14.93;11.73;;;;;;;14.69;65.92;93595.97;5026668;28;20196;-52
2022/12/12 11:16:15;;;;;;;17.43;11.63;;;;;;;14.68;66.00;93596.13;5026029;28;20235;-50
2022/12/12 11:18:58;;;;;;;14.43;11.70;;;;;;;14.71;66.11;93600.91;5026669;28;20202;-47
2022/12/12 11:21:25;;;;;;;15.10;12.53;;;;;;;14.70;66.13;93605.25;5023605;28;20214;-51
2022/12/12 11:23:56;;;;;;;15.43;12.93;;;;;;;14.72;66.02;93598.16;5023137;28;20207;-47
2022/12/12 11:26:24;;;;;;;15.37;13.00;;;;;;;14.72;65.90;93598.16;5024663;28;20200;-49
2022/12/12 11:28:57;;;;;;;16.47;13.50;;;;;;;14.73;66.00;93593.81;5027350;28;20231;-50
2022/12/12 11:31:27;;;;;;;18.80;14.03;;;;;;;14.73;65.89;93588.66;5027252;28;20670;-48
2022/12/12 11:33:57;;;;;;;18.17;14.97;;;;;;;14.71;65.73;93583.69;5027602;28;20686;-48
2022/12/12 11:36:31;;;;;;;17.83;14.87;;;;;;;14.70;65.74;93582.09;5025945;28;20722;-49
2022/12/12 11:39:01;;;;;;;18.53;14.50;;;;;;;14.67;65.79;93582.47;5027064;28;20282;-46
2022/12/12 11:41:28;;;;;;;17.47;14.60;;;;;;;14.60;65.78;93579.09;5027284;28;20702;-48
2022/12/12 11:44:00;;;;;;;18.53;15.17;;;;;;;14.64;65.66;93582.88;5082891;28;20219;-48
2022/12/12 11:46:29;;;;;;;20.43;14.70;;;;;;;14.63;65.95;93581.25;5090065;28;20193;-47
2022/12/12 11:48:59;;;;;;;21.93;15.80;;;;;;;14.62;65.87;93578.88;5090248;28;20605;-48
2022/12/12 11:51:35;;;;;;;20.33;14.47;;;;;;;14.46;65.78;93557.59;5092491;28;20220;-48
2022/12/12 11:54:04;;;;;;;19.57;14.90;;;;;;;14.50;66.00;93556.25;5092050;28;20572;-49
2022/12/12 11:56:50;;;;;;;20.73;16.17;;;;;;;14.58;65.94;93572.53;5091683;28;20189;-48